createdAt,value
2023-05-04T00:00:44.202Z,30.27
2023-05-04T00:01:44.156Z,30.20
2023-05-04T00:02:44.272Z,30.17
2023-05-04T00:03:44.321Z,30.21
2023-05-04T00:04:44.185Z,30.24
2023-05-04T00:05:44.206Z,30.21
2023-05-04T00:06:44.227Z,30.16
2023-05-04T00:07:44.271Z,30.19
2023-05-04T00:08:44.270Z,30.12
2023-05-04T00:09:44.291Z,30.23
2023-05-04T00:10:44.288Z,30.17
2023-05-04T00:11:44.325Z,30.16
2023-05-04T00:12:44.434Z,30.12
2023-05-04T00:13:44.354Z,30.12
2023-05-04T00:14:44.431Z,30.17
2023-05-04T00:15:44.441Z,30.10
2023-05-04T00:16:44.530Z,30.12
2023-05-04T00:17:44.474Z,30.15
2023-05-04T00:18:44.451Z,30.10
2023-05-04T00:19:44.450Z,30.15
2023-05-04T00:20:44.489Z,30.04
2023-05-04T00:21:44.504Z,30.13
2023-05-04T00:22:44.454Z,30.12
2023-05-04T00:23:44.474Z,30.06
2023-05-04T00:24:44.510Z,30.09
2023-05-04T00:25:44.505Z,30.09
2023-05-04T00:26:44.516Z,30.09
2023-05-04T00:27:44.495Z,30.10
2023-05-04T00:28:44.524Z,30.10
2023-05-04T00:29:44.511Z,30.07
2023-05-04T00:30:44.558Z,30.07
2023-05-04T00:31:44.587Z,30.03
2023-05-04T00:32:44.611Z,30.00
2023-05-04T00:33:44.566Z,30.04
2023-05-04T00:34:44.587Z,30.07
2023-05-04T00:35:44.601Z,30.07
2023-05-04T00:36:44.623Z,30.04
2023-05-04T00:37:44.638Z,30.04
2023-05-04T00:38:44.641Z,30.06
2023-05-04T00:39:44.679Z,30.02
2023-05-04T00:40:44.700Z,29.96
2023-05-04T00:41:44.748Z,29.99
2023-05-04T00:42:44.758Z,30.02
2023-05-04T00:43:44.781Z,29.99
2023-05-04T00:44:44.753Z,30.02
2023-05-04T00:45:44.780Z,29.97
2023-05-04T00:46:45.245Z,30.02
2023-05-04T00:47:44.856Z,29.93
2023-05-04T00:48:44.793Z,29.96
2023-05-04T00:49:44.828Z,29.95
2023-05-04T00:50:44.865Z,29.99
2023-05-04T00:51:44.852Z,29.93
2023-05-04T00:52:44.869Z,29.89
2023-05-04T00:53:44.861Z,29.93
2023-05-04T00:54:44.868Z,29.95
2023-05-04T00:55:44.872Z,29.95
2023-05-04T00:56:44.919Z,29.92
2023-05-04T00:57:44.969Z,29.93
2023-05-04T00:58:44.934Z,29.93
2023-05-04T00:59:44.945Z,29.92
2023-05-04T01:00:45.007Z,29.92
2023-05-04T01:01:44.982Z,29.90
2023-05-04T01:02:45.038Z,29.87
2023-05-04T01:03:45.059Z,29.92
2023-05-04T01:04:45.018Z,29.90
2023-05-04T01:05:45.017Z,29.90
2023-05-04T01:06:45.734Z,29.87
2023-05-04T01:07:45.066Z,29.90
2023-05-04T01:08:45.065Z,29.86
2023-05-04T01:09:45.086Z,29.93
2023-05-04T01:10:45.119Z,29.89
2023-05-04T01:11:45.122Z,29.93
2023-05-04T01:12:45.170Z,29.86
2023-05-04T01:13:45.173Z,29.83
2023-05-04T01:14:45.138Z,29.86
2023-05-04T01:15:45.161Z,29.90
2023-05-04T01:16:45.237Z,29.87
2023-05-04T01:17:45.206Z,29.86
2023-05-04T01:18:45.209Z,29.85
2023-05-04T01:19:45.239Z,29.87
2023-05-04T01:20:45.264Z,29.82
2023-05-04T01:21:45.246Z,29.83
2023-05-04T01:22:45.279Z,29.82
2023-05-04T01:23:45.284Z,29.83
2023-05-04T01:24:45.328Z,29.82
2023-05-04T01:25:45.331Z,29.79
2023-05-04T01:26:45.356Z,29.80
2023-05-04T01:27:45.422Z,29.76
2023-05-04T01:28:45.362Z,29.77
2023-05-04T01:29:45.394Z,29.73
2023-05-04T01:30:45.443Z,29.80
2023-05-04T01:31:45.432Z,29.80
2023-05-04T01:32:45.448Z,29.77
2023-05-04T01:33:45.450Z,29.75
2023-05-04T01:34:45.462Z,29.76
2023-05-04T01:35:45.471Z,29.79
2023-05-04T01:36:45.747Z,29.79
2023-05-04T01:37:45.517Z,29.82
2023-05-04T01:38:45.569Z,29.81
2023-05-04T01:39:45.576Z,29.82
2023-05-04T01:40:45.578Z,29.79
2023-05-04T01:41:45.624Z,29.81
2023-05-04T01:42:45.846Z,29.79
2023-05-04T01:43:45.624Z,29.83
2023-05-04T01:44:45.657Z,29.80
2023-05-04T01:45:45.698Z,29.80
2023-05-04T01:46:45.745Z,29.80
2023-05-04T01:47:45.848Z,29.76
2023-05-04T01:48:45.782Z,29.74
2023-05-04T01:49:45.796Z,29.76
2023-05-04T01:50:45.900Z,29.73
2023-05-04T01:51:45.845Z,29.77
2023-05-04T01:52:45.906Z,29.73
2023-05-04T01:53:45.923Z,29.71
2023-05-04T01:54:45.935Z,29.75
2023-05-04T01:55:45.953Z,29.77
2023-05-04T01:56:45.996Z,29.70
2023-05-04T01:57:45.984Z,29.67
2023-05-04T01:58:46.018Z,29.76
2023-05-04T01:59:46.036Z,29.64
2023-05-04T02:00:46.059Z,29.70
2023-05-04T02:01:46.099Z,29.67
2023-05-04T02:02:46.176Z,29.64
2023-05-04T02:03:46.154Z,29.69
2023-05-04T02:04:46.125Z,29.65
2023-05-04T02:05:46.173Z,29.67
2023-05-04T02:06:46.251Z,29.64
2023-05-04T02:07:46.180Z,29.64
2023-05-04T02:08:46.193Z,29.70
2023-05-04T02:09:46.196Z,29.69
2023-05-04T02:10:46.204Z,29.66
2023-05-04T02:11:46.247Z,29.69
2023-05-04T02:12:46.410Z,29.67
2023-05-04T02:13:46.253Z,29.73
2023-05-04T02:14:46.337Z,29.64
2023-05-04T02:15:46.373Z,29.62
2023-05-04T02:16:46.344Z,29.62
2023-05-04T02:17:46.553Z,29.61
2023-05-04T02:18:46.346Z,29.63
2023-05-04T02:19:46.364Z,29.63
2023-05-04T02:20:46.436Z,29.61
2023-05-04T02:21:46.435Z,29.63
2023-05-04T02:22:46.460Z,29.56
2023-05-04T02:23:46.489Z,29.59
2023-05-04T02:24:46.492Z,29.63
2023-05-04T02:25:46.478Z,29.61
2023-05-04T02:26:46.495Z,29.56
2023-05-04T02:27:46.510Z,29.60
2023-05-04T02:28:46.540Z,29.61
2023-05-04T02:29:46.543Z,29.56
2023-05-04T02:30:46.543Z,29.59
2023-05-04T02:31:47.365Z,29.60
2023-05-04T02:32:46.621Z,29.57
2023-05-04T02:33:46.635Z,29.60
2023-05-04T02:34:46.592Z,29.57
2023-05-04T02:35:46.608Z,29.57
2023-05-04T02:36:46.588Z,29.60
2023-05-04T02:37:46.609Z,29.52
2023-05-04T02:38:46.675Z,29.54
2023-05-04T02:39:46.663Z,29.55
2023-05-04T02:40:46.647Z,29.56
2023-05-04T02:41:46.652Z,29.54
2023-05-04T02:42:46.694Z,29.52
2023-05-04T02:43:46.657Z,29.52
2023-05-04T02:44:46.700Z,29.57
2023-05-04T02:45:46.708Z,29.52
2023-05-04T02:46:46.707Z,29.53
2023-05-04T02:47:46.784Z,29.56
2023-05-04T02:48:46.712Z,29.52
2023-05-04T02:49:46.816Z,29.49
2023-05-04T02:50:46.787Z,29.47
2023-05-04T02:51:47.323Z,29.49
2023-05-04T02:52:46.789Z,29.49
2023-05-04T02:53:46.820Z,29.53
2023-05-04T02:54:46.811Z,29.49
2023-05-04T02:55:46.798Z,29.52
2023-05-04T02:56:46.855Z,29.46
2023-05-04T02:57:47.791Z,29.46
2023-05-04T02:58:46.867Z,29.47
2023-05-04T02:59:46.878Z,29.46
2023-05-04T03:00:46.837Z,29.46
2023-05-04T03:01:46.942Z,29.49
2023-05-04T03:02:46.946Z,29.48
2023-05-04T03:03:46.931Z,29.47
2023-05-04T03:04:46.961Z,29.53
2023-05-04T03:05:46.970Z,29.46
2023-05-04T03:06:47.050Z,29.50
2023-05-04T03:07:47.011Z,29.50
2023-05-04T03:08:47.076Z,29.44
2023-05-04T03:09:48.070Z,29.47
2023-05-04T03:10:47.075Z,29.48
2023-05-04T03:11:47.060Z,29.46
2023-05-04T03:12:47.147Z,29.44
2023-05-04T03:13:47.115Z,29.46
2023-05-04T03:14:47.147Z,29.48
2023-05-04T03:15:47.156Z,29.46
2023-05-04T03:16:47.276Z,29.43
2023-05-04T03:17:47.219Z,29.39
2023-05-04T03:18:57.967Z,29.44
2023-05-04T03:19:47.247Z,29.43
2023-05-04T03:20:47.192Z,29.40
2023-05-04T03:21:47.229Z,29.39
2023-05-04T03:22:47.194Z,29.39
2023-05-04T03:23:47.202Z,29.39
2023-05-04T03:24:47.144Z,29.42
2023-05-04T03:25:47.177Z,29.46
2023-05-04T03:26:47.199Z,29.42
2023-05-04T03:27:47.170Z,29.40
2023-05-04T03:28:47.146Z,29.40
2023-05-04T03:29:47.155Z,29.39
2023-05-04T03:30:47.126Z,29.37
2023-05-04T03:31:47.134Z,29.36
2023-05-04T03:32:47.128Z,29.29
2023-05-04T03:33:47.086Z,29.37
2023-05-04T03:34:47.104Z,29.32
2023-05-04T03:35:47.122Z,29.39
2023-05-04T03:36:47.091Z,29.36
2023-05-04T03:37:47.067Z,29.34
2023-05-04T03:38:47.067Z,29.39
2023-05-04T03:39:47.103Z,29.34
2023-05-04T03:40:47.071Z,29.34
2023-05-04T03:41:47.034Z,29.28
2023-05-04T03:42:47.037Z,29.34
2023-05-04T03:43:47.065Z,29.39
2023-05-04T03:44:47.038Z,29.33
2023-05-04T03:45:47.156Z,29.30
2023-05-04T03:46:47.119Z,29.36
2023-05-04T03:47:47.155Z,29.24
2023-05-04T03:48:47.150Z,29.32
2023-05-04T03:49:47.151Z,29.33
2023-05-04T03:50:47.195Z,29.30
2023-05-04T03:51:47.213Z,29.29
2023-05-04T03:52:47.238Z,29.29
2023-05-04T03:53:47.245Z,29.28
2023-05-04T03:54:47.254Z,29.28
2023-05-04T03:55:47.285Z,29.26
2023-05-04T03:56:47.300Z,29.26
2023-05-04T03:57:47.362Z,29.26
2023-05-04T03:58:47.345Z,29.29
2023-05-04T03:59:47.358Z,29.23
2023-05-04T04:00:47.379Z,29.26
2023-05-04T04:01:47.407Z,29.27
2023-05-04T04:02:47.512Z,29.28
2023-05-04T04:03:47.489Z,29.27
2023-05-04T04:04:47.455Z,29.27
2023-05-04T04:05:47.472Z,29.26
2023-05-04T04:06:47.442Z,29.23
2023-05-04T04:07:47.511Z,29.27
2023-05-04T04:08:47.476Z,29.26
2023-05-04T04:09:47.498Z,29.26
2023-05-04T04:10:47.559Z,29.27
2023-05-04T04:11:47.568Z,29.24
2023-05-04T04:12:47.664Z,29.21
2023-05-04T04:13:47.667Z,29.26
2023-05-04T04:14:47.633Z,29.28
2023-05-04T04:15:47.671Z,29.24
2023-05-04T04:16:47.690Z,29.24
2023-05-04T04:17:47.855Z,29.27
2023-05-04T04:18:47.747Z,29.26
2023-05-04T04:19:47.764Z,29.20
2023-05-04T04:20:47.785Z,29.24
2023-05-04T04:21:47.823Z,29.27
2023-05-04T04:22:47.895Z,29.23
2023-05-04T04:23:47.920Z,29.24
2023-05-04T04:24:47.913Z,29.23
2023-05-04T04:25:48.016Z,29.23
2023-05-04T04:26:48.031Z,29.24
2023-05-04T04:27:48.020Z,29.26
2023-05-04T04:28:48.048Z,29.26
2023-05-04T04:29:48.072Z,29.21
2023-05-04T04:30:48.096Z,29.24
2023-05-04T04:31:48.352Z,29.24
2023-05-04T04:32:48.187Z,29.21
2023-05-04T04:33:48.167Z,29.21
2023-05-04T04:34:48.228Z,29.20
2023-05-04T04:35:48.248Z,29.17
2023-05-04T04:36:48.302Z,29.28
2023-05-04T04:37:48.317Z,29.24
2023-05-04T04:38:48.325Z,29.24
2023-05-04T04:39:48.359Z,29.21
2023-05-04T04:40:48.414Z,29.24
2023-05-04T04:41:48.414Z,29.21
2023-05-04T04:42:48.464Z,29.22
2023-05-04T04:43:48.478Z,29.24
2023-05-04T04:44:48.604Z,29.28
2023-05-04T04:45:48.528Z,29.25
2023-05-04T04:46:48.644Z,29.22
2023-05-04T04:47:48.626Z,29.17
2023-05-04T04:48:48.631Z,29.24
2023-05-04T04:49:48.697Z,29.22
2023-05-04T04:50:48.710Z,29.20
2023-05-04T04:51:48.747Z,29.12
2023-05-04T04:52:48.764Z,29.17
2023-05-04T04:53:48.822Z,29.07
2023-05-04T04:54:48.829Z,29.07
2023-05-04T04:55:48.924Z,29.08
2023-05-04T04:56:48.939Z,28.98
2023-05-04T04:57:48.996Z,28.95
2023-05-04T04:58:48.983Z,28.93
2023-05-04T04:59:49.044Z,28.93
2023-05-04T05:00:49.196Z,28.92
2023-05-04T05:01:49.124Z,28.76
2023-05-04T05:02:49.178Z,28.77
2023-05-04T05:03:49.238Z,28.77
2023-05-04T05:04:49.382Z,28.67
2023-05-04T05:05:49.244Z,28.72
2023-05-04T05:06:49.310Z,28.72
2023-05-04T05:07:49.322Z,28.63
2023-05-04T05:08:49.354Z,28.66
2023-05-04T05:09:49.377Z,28.58
2023-05-04T05:10:49.384Z,28.56
2023-05-04T05:11:49.468Z,28.41
2023-05-04T05:12:49.849Z,28.40
2023-05-04T05:13:49.457Z,28.34
2023-05-04T05:14:49.517Z,28.25
2023-05-04T05:15:49.485Z,28.23
2023-05-04T05:16:49.611Z,28.23
2023-05-04T05:17:49.659Z,28.14
2023-05-04T05:18:49.601Z,28.14
2023-05-04T05:19:49.609Z,28.10
2023-05-04T05:20:49.638Z,28.14
2023-05-04T05:21:49.645Z,27.95
2023-05-04T05:22:49.670Z,28.03
2023-05-04T05:23:49.745Z,28.08
2023-05-04T05:24:49.756Z,28.07
2023-05-04T05:25:49.788Z,28.04
2023-05-04T05:26:49.853Z,28.04
2023-05-04T05:27:49.890Z,27.94
2023-05-04T05:28:49.872Z,28.01
2023-05-04T05:29:49.881Z,27.99
2023-05-04T05:30:50.009Z,28.10
2023-05-04T05:31:50.093Z,28.23
2023-05-04T05:32:50.000Z,28.32
2023-05-04T05:33:50.073Z,31.44
2023-05-04T05:34:50.143Z,30.69
2023-05-04T05:35:50.396Z,30.87
2023-05-04T05:36:50.155Z,30.14
2023-05-04T05:37:50.864Z,30.12
2023-05-04T05:38:50.478Z,30.16
2023-05-04T05:39:50.240Z,29.98
2023-05-04T05:40:50.326Z,29.67
2023-05-04T05:41:50.383Z,29.16
2023-05-04T05:42:50.474Z,29.39
2023-05-04T05:43:50.421Z,29.32
2023-05-04T05:44:50.446Z,29.48
2023-05-04T05:45:50.538Z,29.50
2023-05-04T05:46:50.540Z,29.08
2023-05-04T05:47:50.597Z,29.29
2023-05-04T05:48:50.659Z,29.13
2023-05-04T05:49:50.738Z,29.05
2023-05-04T05:50:50.763Z,28.92
2023-05-04T05:51:50.852Z,28.90
2023-05-04T05:52:50.894Z,28.79
2023-05-04T05:53:50.960Z,28.82
2023-05-04T05:54:50.970Z,28.93
2023-05-04T05:55:51.081Z,28.93
2023-05-04T05:56:51.123Z,28.88
2023-05-04T05:57:51.849Z,28.75
2023-05-04T05:58:51.202Z,28.80
2023-05-04T05:59:51.445Z,28.64
2023-05-04T06:00:51.283Z,28.60
2023-05-04T06:01:51.352Z,28.66
2023-05-04T06:02:51.494Z,28.53
2023-05-04T06:03:51.655Z,28.48
2023-05-04T06:04:51.612Z,28.55
2023-05-04T06:05:51.619Z,28.58
2023-05-04T06:06:51.617Z,28.46
2023-05-04T06:07:52.393Z,28.49
2023-05-04T06:08:51.684Z,28.41
2023-05-04T06:09:51.763Z,28.42
2023-05-04T06:10:51.736Z,28.37
2023-05-04T06:11:53.344Z,28.38
2023-05-04T06:12:51.921Z,28.39
2023-05-04T06:13:51.796Z,28.37
2023-05-04T06:14:51.808Z,28.33
2023-05-04T06:15:51.919Z,28.30
2023-05-04T06:16:51.773Z,28.33
2023-05-04T06:17:51.799Z,28.32
2023-05-04T06:18:51.775Z,28.30
2023-05-04T06:19:51.744Z,28.30
2023-05-04T06:20:51.751Z,28.26
2023-05-04T06:21:51.844Z,28.29
2023-05-04T06:22:51.814Z,28.60
2023-05-04T06:23:51.713Z,28.61
2023-05-04T06:24:52.907Z,28.63
2023-05-04T06:25:51.697Z,28.50
2023-05-04T06:26:51.728Z,28.50
2023-05-04T06:27:51.689Z,28.44
2023-05-04T06:28:51.693Z,28.43
2023-05-04T06:29:51.761Z,28.43
2023-05-04T06:30:51.680Z,28.37
2023-05-04T06:31:52.401Z,28.41
2023-05-04T06:32:51.787Z,28.50
2023-05-04T06:33:51.788Z,28.46
2023-05-04T06:34:51.828Z,28.49
2023-05-04T06:35:51.813Z,28.65
2023-05-04T06:36:51.906Z,28.81
2023-05-04T06:37:52.453Z,28.95
2023-05-04T06:38:52.066Z,29.28
2023-05-04T06:39:51.964Z,29.80
2023-05-04T06:40:52.021Z,29.64
2023-05-04T06:41:52.012Z,29.50
2023-05-04T06:42:52.368Z,29.63
2023-05-04T06:43:52.023Z,29.56
2023-05-04T06:44:52.059Z,29.70
2023-05-04T06:45:52.154Z,29.69
2023-05-04T06:46:52.193Z,29.49
2023-05-04T06:47:52.289Z,29.42
2023-05-04T06:48:52.169Z,29.31
2023-05-04T06:49:52.245Z,29.28
2023-05-04T06:50:52.242Z,29.27
2023-05-04T06:51:52.290Z,29.24
2023-05-04T06:52:52.418Z,29.20
2023-05-04T06:53:52.393Z,29.19
2023-05-04T06:54:52.394Z,29.19
2023-05-04T06:55:52.721Z,29.16
2023-05-04T06:56:52.500Z,29.19
2023-05-04T06:57:52.499Z,29.14
2023-05-04T06:58:52.546Z,29.06
2023-05-04T06:59:52.615Z,29.12
2023-05-04T07:00:52.627Z,29.09
2023-05-04T07:01:52.653Z,29.16
2023-05-04T07:02:52.815Z,29.17
2023-05-04T07:03:52.876Z,29.10
2023-05-04T07:04:52.852Z,29.17
2023-05-04T07:05:53.389Z,29.22
2023-05-04T07:06:52.888Z,29.30
2023-05-04T07:07:52.944Z,29.29
2023-05-04T07:08:52.910Z,29.41
2023-05-04T07:09:53.063Z,29.37
2023-05-04T07:10:53.929Z,29.35
2023-05-04T07:11:52.994Z,29.39
2023-05-04T07:12:53.072Z,29.35
2023-05-04T07:13:53.089Z,29.36
2023-05-04T07:14:53.161Z,29.36
2023-05-04T07:15:53.165Z,29.32
2023-05-04T07:16:53.178Z,29.29
2023-05-04T07:17:53.284Z,29.29
2023-05-04T07:18:53.251Z,29.33
2023-05-04T07:19:53.372Z,29.22
2023-05-04T07:21:01.610Z,29.17
2023-05-04T07:21:54.368Z,29.23
2023-05-04T07:22:53.422Z,29.23
2023-05-04T07:23:53.313Z,29.19
2023-05-04T07:24:53.372Z,29.24
2023-05-04T07:25:53.802Z,29.24
2023-05-04T07:26:53.352Z,29.24
2023-05-04T07:27:53.318Z,29.16
2023-05-04T07:28:53.298Z,29.10
2023-05-04T07:29:53.510Z,29.17
2023-05-04T07:30:53.325Z,29.17
2023-05-04T07:31:53.312Z,29.34
2023-05-04T07:32:53.303Z,29.94
2023-05-04T07:33:53.332Z,30.61
2023-05-04T07:34:54.029Z,30.16
2023-05-04T07:35:53.399Z,30.09
2023-05-04T07:36:53.433Z,30.15
2023-05-04T07:37:53.983Z,30.06
2023-05-04T07:38:53.539Z,30.26
2023-05-04T07:39:53.537Z,30.26
2023-05-04T07:40:53.575Z,30.16
2023-05-04T07:41:53.628Z,30.25
2023-05-04T07:42:54.411Z,30.13
2023-05-04T07:43:53.708Z,30.01
2023-05-04T07:44:53.788Z,29.93
2023-05-04T07:45:53.865Z,29.85
2023-05-04T07:46:54.869Z,29.74
2023-05-04T07:47:53.911Z,29.74
2023-05-04T07:48:53.981Z,29.60
2023-05-04T07:49:53.970Z,29.61
2023-05-04T07:50:54.172Z,29.59
2023-05-04T07:51:54.009Z,29.50
2023-05-04T07:52:54.039Z,29.44
2023-05-04T07:53:54.076Z,29.43
2023-05-04T07:54:54.186Z,29.39
2023-05-04T07:55:54.160Z,29.37
2023-05-04T07:56:54.187Z,29.37
2023-05-04T07:57:54.284Z,29.36
2023-05-04T07:58:54.272Z,29.32
2023-05-04T07:59:54.321Z,29.35
2023-05-04T08:00:54.340Z,29.32
2023-05-04T08:01:54.489Z,29.27
2023-05-04T08:02:54.450Z,29.19
2023-05-04T08:03:54.519Z,29.21
2023-05-04T08:04:54.526Z,29.21
2023-05-04T08:05:54.549Z,29.11
2023-05-04T08:06:54.590Z,29.14
2023-05-04T08:07:54.650Z,29.17
2023-05-04T08:08:54.635Z,29.14
2023-05-04T08:09:54.663Z,29.17
2023-05-04T08:10:57.759Z,29.12
2023-05-04T08:11:55.677Z,29.14
2023-05-04T08:12:54.685Z,29.15
2023-05-04T08:13:54.901Z,29.14
2023-05-04T08:14:54.704Z,29.21
2023-05-04T08:15:54.668Z,29.20
2023-05-04T08:16:54.664Z,29.14
2023-05-04T08:17:54.677Z,29.17
2023-05-04T08:18:54.740Z,29.20
2023-05-04T08:19:55.462Z,29.24
2023-05-04T08:20:54.672Z,30.14
2023-05-04T08:21:54.677Z,29.81
2023-05-04T08:22:54.912Z,29.72
2023-05-04T08:23:54.596Z,29.72
2023-05-04T08:24:54.646Z,30.19
2023-05-04T08:25:54.592Z,31.72
2023-05-04T08:27:06.614Z,32.05
2023-05-04T08:27:55.895Z,31.57
2023-05-04T08:28:54.955Z,31.44
2023-05-04T08:29:54.599Z,30.85
2023-05-04T08:30:54.577Z,30.54
2023-05-04T08:31:54.616Z,30.39
2023-05-04T08:32:54.593Z,30.24
2023-05-04T08:33:54.560Z,30.28
2023-05-04T08:34:54.620Z,30.12
2023-05-04T08:35:54.538Z,30.08
2023-05-04T08:36:54.550Z,30.06
2023-05-04T08:37:54.926Z,29.99
2023-05-04T08:38:54.938Z,29.88
2023-05-04T08:39:54.496Z,29.94
2023-05-04T08:40:54.506Z,32.40
2023-05-04T08:41:54.502Z,33.33
2023-05-04T08:42:54.499Z,32.46
2023-05-04T08:43:54.569Z,32.60
2023-05-04T08:44:54.494Z,30.85
2023-05-04T08:45:54.469Z,31.15
2023-05-04T08:46:54.476Z,30.90
2023-05-04T08:47:55.008Z,30.81
2023-05-04T08:48:54.462Z,30.67
2023-05-04T08:49:54.423Z,30.49
2023-05-04T08:50:54.441Z,30.52
2023-05-04T08:51:54.440Z,30.25
2023-05-04T08:52:54.427Z,30.42
2023-05-04T08:53:54.439Z,30.31
2023-05-04T08:54:54.504Z,30.18
2023-05-04T08:55:54.489Z,29.74
2023-05-04T08:56:54.512Z,29.71
2023-05-04T08:57:54.932Z,29.88
2023-05-04T08:58:54.566Z,29.82
2023-05-04T08:59:54.537Z,29.82
2023-05-04T09:00:54.608Z,29.91
2023-05-04T09:01:54.680Z,29.64
2023-05-04T09:02:54.713Z,29.41
2023-05-04T09:03:54.719Z,29.25
2023-05-04T09:04:54.610Z,29.22
2023-05-04T09:05:54.638Z,29.16
2023-05-04T09:06:54.613Z,29.16
2023-05-04T09:07:54.707Z,29.22
2023-05-04T09:08:54.727Z,29.07
2023-05-04T09:09:54.744Z,29.08
2023-05-04T09:10:55.432Z,28.90
2023-05-04T09:11:54.845Z,28.70
2023-05-04T09:12:54.801Z,28.53
2023-05-04T09:13:54.851Z,28.62
2023-05-04T09:14:54.836Z,28.28
2023-05-04T09:15:54.936Z,28.28
2023-05-04T09:16:54.923Z,28.29
2023-05-04T09:17:57.632Z,28.39
2023-05-04T09:18:54.909Z,28.38
2023-05-04T09:19:54.864Z,28.54
2023-05-04T09:20:54.861Z,28.46
2023-05-04T09:21:54.867Z,28.26
2023-05-04T09:22:54.885Z,28.10
2023-05-04T09:23:54.874Z,28.04
2023-05-04T09:24:54.838Z,27.87
2023-05-04T09:25:54.849Z,27.97
2023-05-04T09:26:54.838Z,27.90
2023-05-04T09:27:54.847Z,27.83
2023-05-04T09:28:54.820Z,27.70
2023-05-04T09:29:54.816Z,27.59
2023-05-04T09:30:54.957Z,27.62
2023-05-04T09:31:54.808Z,27.54
2023-05-04T09:32:54.861Z,27.58
2023-05-04T09:33:54.794Z,27.77
2023-05-04T09:34:54.811Z,28.34
2023-05-04T09:35:54.775Z,28.79
2023-05-04T09:36:54.786Z,28.74
2023-05-04T09:37:54.758Z,28.90
2023-05-04T09:38:54.789Z,28.86
2023-05-04T09:39:54.750Z,28.95
2023-05-04T09:40:54.763Z,29.04
2023-05-04T09:41:54.797Z,29.14
2023-05-04T09:42:54.757Z,29.08
2023-05-04T09:43:54.722Z,29.05
2023-05-04T09:44:54.729Z,29.07
2023-05-04T09:45:54.750Z,29.11
2023-05-04T09:46:54.725Z,29.27
2023-05-04T09:47:54.972Z,29.20
2023-05-04T09:48:54.719Z,29.24
2023-05-04T09:49:54.708Z,29.31
2023-05-04T09:50:54.750Z,29.41
2023-05-04T09:51:54.706Z,29.51
2023-05-04T09:52:54.674Z,29.50
2023-05-04T09:53:54.691Z,29.65
2023-05-04T09:54:54.652Z,29.61
2023-05-04T09:55:54.681Z,29.54
2023-05-04T09:56:54.650Z,29.53
2023-05-04T09:57:54.625Z,29.51
2023-05-04T09:58:54.719Z,29.54
2023-05-04T09:59:54.650Z,29.51
2023-05-04T10:00:54.614Z,29.51
2023-05-04T10:01:54.658Z,29.47
2023-05-04T10:02:54.599Z,29.46
2023-05-04T10:03:54.629Z,29.49
2023-05-04T10:04:54.610Z,29.38
2023-05-04T10:05:54.609Z,29.39
2023-05-04T10:06:54.581Z,29.39
2023-05-04T10:07:54.596Z,29.36
2023-05-04T10:08:54.558Z,29.42
2023-05-04T10:09:54.582Z,29.41
2023-05-04T10:10:54.541Z,29.42
2023-05-04T10:11:55.448Z,29.53
2023-05-04T10:12:54.593Z,29.50
2023-05-04T10:13:54.568Z,29.61
2023-05-04T10:14:54.530Z,29.73
2023-05-04T10:15:54.559Z,29.77
2023-05-04T10:16:54.507Z,29.93
2023-05-04T10:17:54.566Z,30.06
2023-05-04T10:18:54.532Z,30.03
2023-05-04T10:19:54.490Z,30.14
2023-05-04T10:20:54.475Z,30.14
2023-05-04T10:21:54.508Z,30.12
2023-05-04T10:22:54.473Z,30.10
2023-05-04T10:23:54.538Z,30.19
2023-05-04T10:24:54.447Z,30.32
2023-05-04T10:25:54.431Z,30.21
2023-05-04T10:26:54.472Z,31.49
2023-05-04T10:27:54.476Z,31.94
2023-05-04T10:28:54.485Z,32.04
2023-05-04T10:29:54.436Z,32.14
2023-05-04T10:30:54.435Z,31.67
2023-05-04T10:31:54.439Z,31.51
2023-05-04T10:32:54.555Z,31.35
2023-05-04T10:33:54.473Z,31.48
2023-05-04T10:34:56.195Z,31.39
2023-05-04T10:35:54.516Z,31.18
2023-05-04T10:36:54.423Z,30.88
2023-05-04T10:37:54.625Z,30.96
2023-05-04T10:38:54.460Z,31.12
2023-05-04T10:39:54.392Z,31.11
2023-05-04T10:40:54.347Z,31.11
2023-05-04T10:41:54.369Z,30.98
2023-05-04T10:42:54.336Z,30.88
2023-05-04T10:43:54.364Z,30.72
2023-05-04T10:44:54.317Z,30.47
2023-05-04T10:45:54.355Z,30.49
2023-05-04T10:46:54.865Z,30.45
2023-05-04T10:47:54.365Z,30.38
2023-05-04T10:48:54.347Z,30.32
2023-05-04T10:49:54.296Z,29.91
2023-05-04T10:50:54.981Z,30.12
2023-05-04T10:51:54.270Z,30.24
2023-05-04T10:52:54.385Z,30.19
2023-05-04T10:53:55.073Z,30.05
2023-05-04T10:54:54.263Z,29.92
2023-05-04T10:55:54.299Z,29.81
2023-05-04T10:56:54.376Z,29.55
2023-05-04T10:57:54.278Z,30.20
2023-05-04T10:58:54.243Z,30.13
2023-05-04T10:59:54.221Z,30.31
2023-05-04T11:00:54.257Z,30.38
2023-05-04T11:01:54.210Z,30.49
2023-05-04T11:02:54.231Z,30.32
2023-05-04T11:03:54.275Z,30.12
2023-05-04T11:04:54.182Z,30.02
2023-05-04T11:05:54.293Z,30.07
2023-05-04T11:06:54.177Z,30.21
2023-05-04T11:07:54.159Z,30.39
2023-05-04T11:08:54.273Z,30.38
2023-05-04T11:09:54.154Z,30.21
2023-05-04T11:10:54.199Z,29.97
2023-05-04T11:11:54.156Z,30.18
2023-05-04T11:12:54.186Z,30.21
2023-05-04T11:13:54.149Z,30.05
2023-05-04T11:14:54.107Z,29.90
2023-05-04T11:15:54.099Z,30.12
2023-05-04T11:16:54.193Z,30.24
2023-05-04T11:17:54.137Z,30.22
2023-05-04T11:18:54.145Z,29.95
2023-05-04T11:19:54.110Z,30.26
2023-05-04T11:20:54.104Z,30.69
2023-05-04T11:21:54.133Z,30.79
2023-05-04T11:22:54.122Z,30.87
2023-05-04T11:23:54.490Z,31.29
2023-05-04T11:25:02.746Z,31.38
2023-05-04T11:25:55.098Z,31.40
2023-05-04T11:26:54.075Z,31.35
2023-05-04T11:27:54.057Z,31.24
2023-05-04T11:28:54.065Z,31.29
2023-05-04T11:29:54.019Z,31.24
2023-05-04T11:30:56.181Z,31.25
2023-05-04T11:31:54.181Z,31.21
2023-05-04T11:32:54.132Z,31.17
2023-05-04T11:33:54.001Z,31.08
2023-05-04T11:34:54.000Z,30.93
2023-05-04T11:35:54.005Z,30.81
2023-05-04T11:36:53.973Z,30.78
2023-05-04T11:37:53.965Z,30.43
2023-05-04T11:38:54.487Z,30.36
2023-05-04T11:39:53.977Z,30.42
2023-05-04T11:40:53.967Z,30.26
2023-05-04T11:41:53.949Z,30.16
2023-05-04T11:42:55.511Z,30.15
2023-05-04T11:43:54.498Z,30.01
2023-05-04T11:44:53.959Z,29.89
2023-05-04T11:45:53.943Z,29.87
2023-05-04T11:46:53.963Z,29.64
2023-05-04T11:47:53.978Z,29.62
2023-05-04T11:48:54.015Z,29.53
2023-05-04T11:49:53.891Z,29.50
2023-05-04T11:50:53.925Z,29.47
2023-05-04T11:51:53.873Z,29.43
2023-05-04T11:52:53.859Z,29.45
2023-05-04T11:53:53.908Z,29.37
2023-05-04T11:54:55.653Z,29.30
2023-05-04T11:55:53.964Z,29.32
2023-05-04T11:56:53.827Z,29.30
2023-05-04T11:57:53.840Z,29.27
2023-05-04T11:58:53.848Z,29.26
2023-05-04T11:59:53.827Z,29.15
2023-05-04T12:00:55.840Z,29.25
2023-05-04T12:01:53.795Z,29.19
2023-05-04T12:02:53.899Z,29.17
2023-05-04T12:03:54.469Z,29.25
2023-05-04T12:04:53.810Z,29.27
2023-05-04T12:05:53.801Z,29.33
2023-05-04T12:06:53.755Z,29.41
2023-05-04T12:07:53.754Z,29.45
2023-05-04T12:08:53.746Z,29.58
2023-05-04T12:09:53.747Z,29.68
2023-05-04T12:10:53.745Z,29.74
2023-05-04T12:11:53.734Z,29.91
2023-05-04T12:12:53.782Z,29.71
2023-05-04T12:13:53.725Z,29.57
2023-05-04T12:14:54.050Z,29.63
2023-05-04T12:15:53.729Z,29.66
2023-05-04T12:16:53.713Z,29.66
2023-05-04T12:17:53.721Z,29.76
2023-05-04T12:18:53.708Z,29.78
2023-05-04T12:19:53.732Z,29.82
2023-05-04T12:20:53.700Z,30.00
2023-05-04T12:21:53.728Z,29.98
2023-05-04T12:22:53.726Z,30.09
2023-05-04T12:23:53.762Z,30.13
2023-05-04T12:24:53.776Z,30.15
2023-05-04T12:25:58.039Z,30.11
2023-05-04T12:26:53.800Z,30.02
2023-05-04T12:27:53.766Z,30.01
2023-05-04T12:28:53.769Z,29.93
2023-05-04T12:29:53.763Z,29.95
2023-05-04T12:30:53.818Z,29.92
2023-05-04T12:31:53.799Z,29.86
2023-05-04T12:32:53.844Z,29.85
2023-05-04T12:33:53.752Z,29.77
2023-05-04T12:34:53.758Z,29.63
2023-05-04T12:35:53.724Z,29.51
2023-05-04T12:36:53.745Z,29.47
2023-05-04T12:37:53.745Z,29.45
2023-05-04T12:38:53.726Z,29.36
2023-05-04T12:39:53.698Z,29.36
2023-05-04T12:40:53.672Z,29.30
2023-05-04T12:41:53.679Z,29.19
2023-05-04T12:42:53.695Z,29.06
2023-05-04T12:43:53.650Z,29.05
2023-05-04T12:44:53.675Z,29.03
2023-05-04T12:45:53.651Z,29.00
2023-05-04T12:46:53.689Z,29.16
2023-05-04T12:47:53.703Z,29.19
2023-05-04T12:48:53.653Z,29.22
2023-05-04T12:49:53.647Z,29.24
2023-05-04T12:50:53.614Z,29.26
2023-05-04T12:51:53.621Z,29.30
2023-05-04T12:52:53.603Z,29.47